createdAt,value
2017-01-30T00:00:14.478Z,23.1
2017-01-30T00:00:43.342Z,23.12
2017-01-30T00:01:11.427Z,23.15
2017-01-30T00:01:39.557Z,23.16
2017-01-30T00:02:07.483Z,23
2017-01-30T00:02:35.567Z,23.16
2017-01-30T00:03:03.566Z,23.1
2017-01-30T00:03:31.547Z,23.02
2017-01-30T00:03:59.606Z,23.07
2017-01-30T00:04:27.692Z,23.07
2017-01-30T00:04:55.814Z,23.13
2017-01-30T00:05:24.601Z,23.04
2017-01-30T00:05:52.732Z,23.15
2017-01-30T00:06:21.428Z,23.05
2017-01-30T00:06:49.397Z,23.16
2017-01-30T00:07:19.042Z,23.1
2017-01-30T00:07:47.121Z,23.09
2017-01-30T00:08:15.083Z,23.09
2017-01-30T00:08:43.088Z,23.09
2017-01-30T00:09:11.002Z,23.04
2017-01-30T00:09:38.986Z,23.15
2017-01-30T00:10:06.835Z,23.13
2017-01-30T00:10:34.819Z,23.09
2017-01-30T00:11:02.794Z,23.1
2017-01-30T00:11:31.476Z,23.19
2017-01-30T00:11:59.528Z,23.15
2017-01-30T00:12:28.349Z,23.09
2017-01-30T00:12:56.304Z,23.2
2017-01-30T00:13:24.286Z,23.19
2017-01-30T00:13:52.257Z,23.13
2017-01-30T00:14:20.041Z,23.09
2017-01-30T00:14:48.866Z,23.09
2017-01-30T00:15:17.547Z,23.2
2017-01-30T00:15:46.397Z,23.05
2017-01-30T00:16:15.303Z,23.07
2017-01-30T00:16:44.146Z,23.07
2017-01-30T00:17:12.896Z,23.1
2017-01-30T00:17:42.524Z,22.94
2017-01-30T00:18:11.285Z,23
2017-01-30T00:18:40.891Z,22.94
2017-01-30T00:19:08.935Z,23.01
2017-01-30T00:19:36.886Z,22.91
2017-01-30T00:20:04.820Z,22.9
2017-01-30T00:20:32.868Z,22.98
2017-01-30T00:21:00.891Z,23
2017-01-30T00:21:28.834Z,22.9
2017-01-30T00:21:56.712Z,22.97
2017-01-30T00:22:24.616Z,22.97
2017-01-30T00:22:52.510Z,22.95
2017-01-30T00:23:20.578Z,22.97
2017-01-30T00:23:48.621Z,22.97
2017-01-30T00:24:17.506Z,22.95
2017-01-30T00:24:45.412Z,22.97
2017-01-30T00:25:13.298Z,22.95
2017-01-30T00:25:42.062Z,23.04
2017-01-30T00:26:11.720Z,22.95
2017-01-30T00:26:39.757Z,22.97
2017-01-30T00:27:07.765Z,23.01
2017-01-30T00:27:35.754Z,22.92
2017-01-30T00:28:03.778Z,23
2017-01-30T00:28:31.814Z,22.95
2017-01-30T00:29:00.476Z,23.01
2017-01-30T00:29:28.561Z,22.92
2017-01-30T00:29:56.469Z,22.98
2017-01-30T00:30:24.362Z,22.98
2017-01-30T00:30:52.313Z,22.94
2017-01-30T00:31:20.210Z,23.01
2017-01-30T00:31:48.950Z,22.97
2017-01-30T00:32:17.794Z,22.92
2017-01-30T00:32:45.685Z,22.92
2017-01-30T00:33:13.627Z,23.02
2017-01-30T00:33:41.581Z,22.91
2017-01-30T00:34:10.349Z,22.94
2017-01-30T00:34:38.344Z,22.9
2017-01-30T00:35:06.264Z,22.91
2017-01-30T00:36:12.517Z,22.95
2017-01-30T00:36:40.411Z,23
2017-01-30T00:37:09.100Z,22.95
2017-01-30T00:37:38.625Z,22.91
2017-01-30T00:38:06.727Z,22.9
2017-01-30T00:38:35.504Z,22.92
2017-01-30T00:39:03.576Z,22.92
2017-01-30T00:39:31.651Z,23
2017-01-30T00:40:00.518Z,22.98
2017-01-30T00:40:28.508Z,22.94
2017-01-30T00:40:56.685Z,22.94
2017-01-30T00:41:25.572Z,23.01
2017-01-30T00:41:54.342Z,22.95
2017-01-30T00:42:23.037Z,22.95
2017-01-30T00:42:51.017Z,22.97
2017-01-30T00:43:19.058Z,22.97
2017-01-30T00:43:47.148Z,22.98
2017-01-30T00:44:15.115Z,22.9
2017-01-30T00:44:43.123Z,22.95
2017-01-30T00:45:11.244Z,22.94
2017-01-30T00:45:39.241Z,22.9
2017-01-30T00:46:08.079Z,22.88
2017-01-30T00:46:35.889Z,22.97
2017-01-30T00:47:04.652Z,22.95
2017-01-30T00:47:33.558Z,23
2017-01-30T00:48:01.288Z,22.95
2017-01-30T00:48:30.072Z,22.94
2017-01-30T00:48:58.153Z,22.92
2017-01-30T00:49:26.152Z,22.9
2017-01-30T00:49:54.129Z,22.83
2017-01-30T00:50:22.267Z,22.9
2017-01-30T00:50:50.343Z,22.91
2017-01-30T00:51:18.310Z,22.92
2017-01-30T00:51:47.131Z,22.95
2017-01-30T00:52:15.095Z,22.94
2017-01-30T00:52:43.969Z,22.97
2017-01-30T00:53:11.995Z,22.91
2017-01-30T00:53:40.832Z,22.97
2017-01-30T00:54:08.597Z,22.98
2017-01-30T00:54:36.583Z,22.91
2017-01-30T00:55:04.656Z,22.97
2017-01-30T00:55:32.783Z,22.91
2017-01-30T00:56:00.848Z,23
2017-01-30T00:56:29.685Z,22.88
2017-01-30T00:56:58.445Z,22.91
2017-01-30T00:57:26.541Z,22.86
2017-01-30T00:57:54.409Z,22.9
2017-01-30T00:58:22.450Z,22.83
2017-01-30T00:58:50.494Z,22.85
2017-01-30T00:59:18.453Z,22.9
2017-01-30T00:59:46.406Z,22.86
2017-01-30T01:00:14.646Z,22.97
2017-01-30T01:00:42.738Z,23.01
2017-01-30T01:01:10.620Z,22.98
2017-01-30T01:01:38.524Z,23.01
2017-01-30T01:02:07.202Z,22.91
2017-01-30T01:02:36.049Z,22.92
2017-01-30T01:03:04.942Z,22.94
2017-01-30T01:03:32.882Z,22.97
2017-01-30T01:04:00.975Z,22.88
2017-01-30T01:04:29.047Z,22.98
2017-01-30T01:04:57.023Z,23
2017-01-30T01:05:25.964Z,22.9
2017-01-30T01:05:53.814Z,22.83
2017-01-30T01:06:22.606Z,22.88
2017-01-30T01:06:50.594Z,22.83
2017-01-30T01:07:18.703Z,22.92
2017-01-30T01:07:46.743Z,22.9
2017-01-30T01:08:14.765Z,22.79
2017-01-30T01:08:42.774Z,22.83
2017-01-30T01:09:10.764Z,22.88
2017-01-30T01:09:38.737Z,22.92
2017-01-30T01:10:07.469Z,22.91
2017-01-30T01:10:36.413Z,22.86
2017-01-30T01:11:05.855Z,22.88
2017-01-30T01:11:33.744Z,22.82
2017-01-30T01:12:02.504Z,22.91
2017-01-30T01:12:30.454Z,22.73
2017-01-30T01:12:59.355Z,22.83
2017-01-30T01:13:28.209Z,22.83
2017-01-30T01:13:56.287Z,22.75
2017-01-30T01:14:25.091Z,22.85
2017-01-30T01:15:31.492Z,22.8
2017-01-30T01:15:59.380Z,22.73
2017-01-30T01:16:28.047Z,22.75
2017-01-30T01:16:58.345Z,22.75
2017-01-30T01:17:26.439Z,22.75
2017-01-30T01:17:55.199Z,22.75
2017-01-30T01:18:23.964Z,22.72
2017-01-30T01:18:52.819Z,22.79
2017-01-30T01:19:20.815Z,22.76
2017-01-30T01:19:48.806Z,22.79
2017-01-30T01:20:16.846Z,22.75
2017-01-30T01:20:45.787Z,22.73
2017-01-30T01:21:14.541Z,22.77
2017-01-30T01:21:42.633Z,22.75
2017-01-30T01:22:10.526Z,22.67
2017-01-30T01:22:38.570Z,22.64
2017-01-30T01:23:06.662Z,22.62
2017-01-30T01:23:36.283Z,22.57
2017-01-30T01:24:04.366Z,22.6
2017-01-30T01:24:32.309Z,22.6
2017-01-30T01:25:01.093Z,22.72
2017-01-30T01:25:29.845Z,22.64
2017-01-30T01:25:57.750Z,22.65
2017-01-30T01:26:25.821Z,22.68
2017-01-30T01:26:53.956Z,22.62
2017-01-30T01:27:22.049Z,22.68
2017-01-30T01:27:50.073Z,22.64
2017-01-30T01:28:18.752Z,22.73
2017-01-30T01:28:47.616Z,22.64
2017-01-30T01:29:15.681Z,22.67
2017-01-30T01:29:43.576Z,22.64
2017-01-30T01:30:11.564Z,22.68
2017-01-30T01:30:39.541Z,22.67
2017-01-30T01:31:07.660Z,22.73
2017-01-30T01:31:35.631Z,22.62
2017-01-30T01:32:03.521Z,22.7
2017-01-30T01:32:31.406Z,22.67
2017-01-30T01:32:59.461Z,22.64
2017-01-30T01:33:27.317Z,22.67
2017-01-30T01:33:56.202Z,22.7
2017-01-30T01:34:24.925Z,22.67
2017-01-30T01:34:52.871Z,22.65
2017-01-30T01:35:20.749Z,22.61
2017-01-30T01:35:49.599Z,22.65
2017-01-30T01:36:17.676Z,22.61
2017-01-30T01:36:45.655Z,22.65
2017-01-30T01:37:14.486Z,22.6
2017-01-30T01:37:44.178Z,22.55
2017-01-30T01:38:12.821Z,22.68
2017-01-30T01:38:42.349Z,22.6
2017-01-30T01:39:10.308Z,22.52
2017-01-30T01:39:39.013Z,22.51
2017-01-30T01:40:07.046Z,22.52
2017-01-30T01:40:35.803Z,22.6
2017-01-30T01:41:03.892Z,22.52
2017-01-30T01:41:31.886Z,22.61
2017-01-30T01:41:59.876Z,22.52
2017-01-30T01:42:28.785Z,22.51
2017-01-30T01:42:57.576Z,22.47
2017-01-30T01:43:27.139Z,22.54
2017-01-30T01:43:55.191Z,22.51
2017-01-30T01:44:23.071Z,22.46
2017-01-30T01:44:51.161Z,22.51
2017-01-30T01:45:19.104Z,22.52
2017-01-30T01:45:47.107Z,22.54
2017-01-30T01:46:15.183Z,22.52
2017-01-30T01:46:43.297Z,22.47
2017-01-30T01:47:11.417Z,22.49
2017-01-30T01:47:39.989Z,22.4
2017-01-30T01:48:08.856Z,22.52
2017-01-30T01:48:36.846Z,22.52
2017-01-30T01:49:04.824Z,22.51
2017-01-30T01:49:32.864Z,22.52
2017-01-30T01:50:00.755Z,22.51
2017-01-30T01:50:28.710Z,22.49
2017-01-30T01:50:56.779Z,22.52
2017-01-30T01:51:24.877Z,22.55
2017-01-30T01:51:52.793Z,22.52
2017-01-30T01:52:20.917Z,22.52
2017-01-30T01:52:48.901Z,22.52
2017-01-30T01:53:18.540Z,22.51
2017-01-30T01:53:46.631Z,22.55
2017-01-30T01:54:53.750Z,22.54
2017-01-30T01:55:21.736Z,22.46
2017-01-30T01:55:49.711Z,22.54
2017-01-30T01:56:17.480Z,22.57
2017-01-30T01:56:46.278Z,22.55
2017-01-30T01:57:14.266Z,22.49
2017-01-30T01:57:42.243Z,22.6
2017-01-30T01:58:11.104Z,22.6
2017-01-30T01:58:39.011Z,22.65
2017-01-30T01:59:07.094Z,22.52
2017-01-30T01:59:35.221Z,22.65
2017-01-30T02:00:03.845Z,22.57
2017-01-30T02:00:31.924Z,22.55
2017-01-30T02:01:00.709Z,22.47
2017-01-30T02:01:28.774Z,22.54
2017-01-30T02:01:56.647Z,22.55
2017-01-30T02:02:24.557Z,22.52
2017-01-30T02:02:52.341Z,22.52
2017-01-30T02:03:20.334Z,22.55
2017-01-30T02:03:48.285Z,22.52
2017-01-30T02:04:16.389Z,22.54
2017-01-30T02:04:45.231Z,22.57
2017-01-30T02:05:13.307Z,22.54
2017-01-30T02:05:42.949Z,22.49
2017-01-30T02:06:11.140Z,22.52
2017-01-30T02:06:38.978Z,22.52
2017-01-30T02:07:06.988Z,22.54
2017-01-30T02:07:35.581Z,22.47
2017-01-30T02:08:03.488Z,22.52
2017-01-30T02:08:31.468Z,22.51
2017-01-30T02:08:59.548Z,22.54
2017-01-30T02:09:27.535Z,22.54
2017-01-30T02:09:55.587Z,22.54
2017-01-30T02:10:24.486Z,22.45
2017-01-30T02:10:52.362Z,22.49
2017-01-30T02:11:21.122Z,22.49
2017-01-30T02:11:49.112Z,22.46
2017-01-30T02:12:16.965Z,22.4
2017-01-30T02:12:44.912Z,22.49
2017-01-30T02:13:12.898Z,22.49
2017-01-30T02:13:40.798Z,22.52
2017-01-30T02:14:08.744Z,22.47
2017-01-30T02:14:36.440Z,22.51
2017-01-30T02:15:04.408Z,22.54
2017-01-30T02:15:33.160Z,22.55
2017-01-30T02:16:01.139Z,22.51
2017-01-30T02:16:29.093Z,22.54
2017-01-30T02:16:57.129Z,22.54
2017-01-30T02:17:25.863Z,22.57
2017-01-30T02:17:53.641Z,22.52
2017-01-30T02:18:21.592Z,22.54
2017-01-30T02:18:49.615Z,22.58
2017-01-30T02:19:17.731Z,22.52
2017-01-30T02:19:46.492Z,22.52
2017-01-30T02:20:14.483Z,22.49
2017-01-30T02:20:43.253Z,22.49
2017-01-30T02:21:11.343Z,22.57
2017-01-30T02:21:39.372Z,22.51
2017-01-30T02:22:07.475Z,22.57
2017-01-30T02:22:35.480Z,22.52
2017-01-30T02:23:04.311Z,22.54
2017-01-30T02:23:32.374Z,22.52
2017-01-30T02:24:01.166Z,22.52
2017-01-30T02:24:29.897Z,22.54
2017-01-30T02:24:58.765Z,22.52
2017-01-30T02:25:26.842Z,22.57
2017-01-30T02:25:54.774Z,22.51
2017-01-30T02:26:22.805Z,22.51
2017-01-30T02:26:50.688Z,22.51
2017-01-30T02:27:18.874Z,22.64
2017-01-30T02:27:46.773Z,22.6
2017-01-30T02:28:14.764Z,22.61
2017-01-30T02:28:42.616Z,22.6
2017-01-30T02:29:10.673Z,22.7
2017-01-30T02:29:38.542Z,22.65
2017-01-30T02:30:06.514Z,22.62
2017-01-30T02:30:34.490Z,22.62
2017-01-30T02:31:02.424Z,22.58
2017-01-30T02:31:32.006Z,22.67
2017-01-30T02:31:59.900Z,22.77
2017-01-30T02:32:27.728Z,22.75
2017-01-30T02:32:56.423Z,22.67
2017-01-30T02:34:02.745Z,22.62
2017-01-30T02:34:30.546Z,22.64
2017-01-30T02:34:58.525Z,22.62
2017-01-30T02:35:26.310Z,22.61
2017-01-30T02:35:55.101Z,22.64
2017-01-30T02:36:24.114Z,22.61
2017-01-30T02:36:51.904Z,22.62
2017-01-30T02:37:19.792Z,22.65
2017-01-30T02:37:47.875Z,22.61
2017-01-30T02:38:16.737Z,22.58
2017-01-30T02:38:45.541Z,22.61
2017-01-30T02:39:14.426Z,22.55
2017-01-30T02:39:42.323Z,22.62
2017-01-30T02:40:11.193Z,22.55
2017-01-30T02:40:39.953Z,22.57
2017-01-30T02:41:07.913Z,22.64
2017-01-30T02:41:36.004Z,22.58
2017-01-30T02:42:03.786Z,22.65
2017-01-30T02:42:31.774Z,22.61
2017-01-30T02:42:59.906Z,22.6
2017-01-30T02:43:29.533Z,22.61
2017-01-30T02:43:57.588Z,22.6
2017-01-30T02:44:26.362Z,22.61
2017-01-30T02:44:54.427Z,22.61
2017-01-30T02:45:22.395Z,22.6
2017-01-30T02:45:50.377Z,22.52
2017-01-30T02:46:18.310Z,22.51
2017-01-30T02:46:46.305Z,22.55
2017-01-30T02:47:14.215Z,22.57
2017-01-30T02:47:43.060Z,22.51
2017-01-30T02:48:11.040Z,22.58
2017-01-30T02:48:39.904Z,22.58
2017-01-30T02:49:07.872Z,22.51
2017-01-30T02:49:35.905Z,22.54
2017-01-30T02:50:04.740Z,22.55
2017-01-30T02:50:32.742Z,22.49
2017-01-30T02:51:00.807Z,22.54
2017-01-30T02:51:28.922Z,22.52
2017-01-30T02:51:56.693Z,22.55
2017-01-30T02:52:24.698Z,22.49
2017-01-30T02:52:52.780Z,22.55
2017-01-30T02:53:21.578Z,22.51
2017-01-30T02:53:49.547Z,22.52
2017-01-30T02:54:18.297Z,22.55
2017-01-30T02:54:47.153Z,22.49
2017-01-30T02:55:15.818Z,22.49
2017-01-30T02:55:43.772Z,22.52
2017-01-30T02:56:12.682Z,22.55
2017-01-30T02:56:40.627Z,22.55
2017-01-30T02:57:08.589Z,22.54
2017-01-30T02:57:36.582Z,22.52
2017-01-30T02:58:05.481Z,22.49
2017-01-30T02:58:34.292Z,22.46
2017-01-30T02:59:02.174Z,22.55
2017-01-30T02:59:30.968Z,22.57
2017-01-30T02:59:59.829Z,22.55
2017-01-30T03:00:27.908Z,22.6
2017-01-30T03:00:55.848Z,22.51
2017-01-30T03:01:23.955Z,22.51
2017-01-30T03:01:52.673Z,22.55
2017-01-30T03:02:21.489Z,22.54
2017-01-30T03:02:49.481Z,22.52
2017-01-30T03:03:18.266Z,22.55
2017-01-30T03:03:46.300Z,22.57
2017-01-30T03:04:14.231Z,22.55
2017-01-30T03:04:42.304Z,22.65
2017-01-30T03:05:10.326Z,22.58
2017-01-30T03:05:38.452Z,22.64
2017-01-30T03:06:06.429Z,22.61
2017-01-30T03:06:35.275Z,22.61
2017-01-30T03:07:03.962Z,22.64
2017-01-30T03:07:31.851Z,22.55
2017-01-30T03:07:59.897Z,22.65
2017-01-30T03:08:27.796Z,22.65
2017-01-30T03:08:56.535Z,22.6
2017-01-30T03:09:25.394Z,22.58
2017-01-30T03:09:53.376Z,22.58
2017-01-30T03:10:21.323Z,22.61
2017-01-30T03:10:49.182Z,22.49
2017-01-30T03:11:17.252Z,22.49
2017-01-30T03:11:45.241Z,22.62
2017-01-30T03:12:13.147Z,22.6
2017-01-30T03:13:19.483Z,22.49
2017-01-30T03:13:47.551Z,22.55
2017-01-30T03:14:15.467Z,22.57
2017-01-30T03:14:43.505Z,22.54
2017-01-30T03:15:12.301Z,22.52
2017-01-30T03:15:41.746Z,22.54
2017-01-30T03:16:09.807Z,22.55
2017-01-30T03:16:37.797Z,22.58
2017-01-30T03:17:05.883Z,22.51
2017-01-30T03:17:35.421Z,22.51
2017-01-30T03:18:03.551Z,22.52
2017-01-30T03:18:31.569Z,22.47
2017-01-30T03:18:59.643Z,22.52
2017-01-30T03:19:27.728Z,22.54
2017-01-30T03:19:55.795Z,22.52
2017-01-30T03:20:23.574Z,22.46
2017-01-30T03:20:51.480Z,22.57
2017-01-30T03:21:21.099Z,22.45
2017-01-30T03:21:49.428Z,22.49
2017-01-30T03:22:17.497Z,22.58
2017-01-30T03:22:45.379Z,22.51
2017-01-30T03:23:14.207Z,22.49
2017-01-30T03:23:43.854Z,22.52
2017-01-30T03:24:11.921Z,22.49
2017-01-30T03:24:39.967Z,22.45
2017-01-30T03:25:07.962Z,22.45
2017-01-30T03:25:36.056Z,22.46
2017-01-30T03:26:04.048Z,22.43
2017-01-30T03:26:32.137Z,22.37
2017-01-30T03:27:00.205Z,22.42
2017-01-30T03:27:28.183Z,22.43
2017-01-30T03:27:56.082Z,22.42
2017-01-30T03:28:24.052Z,22.37
2017-01-30T03:28:52.091Z,22.42
2017-01-30T03:29:20.053Z,22.45
2017-01-30T03:29:48.705Z,22.37
2017-01-30T03:30:16.772Z,22.47
2017-01-30T03:30:44.834Z,22.4
2017-01-30T03:31:12.780Z,22.42
2017-01-30T03:31:40.850Z,22.4
2017-01-30T03:32:08.754Z,22.39
2017-01-30T03:32:37.472Z,22.4
2017-01-30T03:33:05.534Z,22.43
2017-01-30T03:33:34.374Z,22.37
2017-01-30T03:34:03.231Z,22.42
2017-01-30T03:34:31.213Z,22.46
2017-01-30T03:34:59.950Z,22.39
2017-01-30T03:35:28.761Z,22.43
2017-01-30T03:35:56.627Z,22.39
2017-01-30T03:36:25.458Z,22.42
2017-01-30T03:36:55.168Z,22.4
2017-01-30T03:37:23.958Z,22.4
2017-01-30T03:37:52.004Z,22.37
2017-01-30T03:38:19.886Z,22.43
2017-01-30T03:38:47.972Z,22.4
2017-01-30T03:39:15.863Z,22.4
2017-01-30T03:39:44.627Z,22.43
2017-01-30T03:40:12.662Z,22.42
2017-01-30T03:40:40.671Z,22.36
2017-01-30T03:41:08.667Z,22.39
2017-01-30T03:41:36.722Z,22.39
2017-01-30T03:42:04.684Z,22.46
2017-01-30T03:42:32.592Z,22.47
2017-01-30T03:43:00.537Z,22.51
2017-01-30T03:43:29.228Z,22.4
2017-01-30T03:43:57.131Z,22.36
2017-01-30T03:44:25.173Z,22.42
2017-01-30T03:44:53.296Z,22.42
2017-01-30T03:45:21.266Z,22.42
2017-01-30T03:45:49.264Z,22.43
2017-01-30T03:46:17.348Z,22.46
2017-01-30T03:46:45.325Z,22.33
2017-01-30T03:47:13.368Z,22.39
2017-01-30T03:47:41.353Z,22.35
2017-01-30T03:48:09.913Z,22.35
2017-01-30T03:48:38.670Z,22.37
2017-01-30T03:49:06.652Z,22.36
2017-01-30T03:49:34.690Z,22.35
2017-01-30T03:50:02.740Z,22.25
2017-01-30T03:50:30.816Z,22.39
2017-01-30T03:50:59.683Z,22.36
2017-01-30T03:51:28.552Z,22.36
2017-01-30T03:52:35.818Z,22.3
2017-01-30T03:53:03.801Z,22.33
2017-01-30T03:53:32.469Z,22.28
2017-01-30T03:54:01.206Z,22.39
2017-01-30T03:54:29.030Z,22.35
2017-01-30T03:54:57.016Z,22.31
2017-01-30T03:55:24.808Z,22.3
2017-01-30T03:55:53.473Z,22.35
2017-01-30T03:56:23.031Z,22.36
2017-01-30T03:56:50.931Z,22.31
2017-01-30T03:57:18.959Z,22.33
2017-01-30T03:57:47.069Z,22.27
2017-01-30T03:58:15.057Z,22.3
2017-01-30T03:58:44.698Z,22.27
2017-01-30T03:59:12.764Z,22.3
2017-01-30T03:59:40.724Z,22.25
2017-01-30T04:00:08.813Z,22.28
2017-01-30T04:00:36.862Z,22.22
2017-01-30T04:01:04.849Z,22.27
2017-01-30T04:01:32.707Z,22.21
2017-01-30T04:02:01.575Z,22.3
2017-01-30T04:02:29.628Z,22.22
2017-01-30T04:02:57.625Z,22.25
2017-01-30T04:03:25.689Z,22.21
2017-01-30T04:03:53.739Z,22.28
2017-01-30T04:04:21.748Z,22.14
2017-01-30T04:04:50.633Z,22.17
2017-01-30T04:05:19.501Z,22.24
2017-01-30T04:05:47.411Z,22.2
2017-01-30T04:06:15.384Z,22.21
2017-01-30T04:06:43.363Z,22.25
2017-01-30T04:07:12.372Z,22.27
2017-01-30T04:07:40.343Z,22.21
2017-01-30T04:08:08.378Z,22.18
2017-01-30T04:08:36.428Z,22.18
2017-01-30T04:09:05.872Z,22.24
2017-01-30T04:09:33.749Z,22.25
2017-01-30T04:10:02.506Z,22.24
2017-01-30T04:10:30.547Z,22.2
2017-01-30T04:10:58.532Z,22.18
2017-01-30T04:11:27.289Z,22.17
2017-01-30T04:11:55.229Z,22.14
2017-01-30T04:12:23.019Z,22.17
2017-01-30T04:12:50.989Z,22.24
2017-01-30T04:13:19.057Z,22.27
2017-01-30T04:13:46.995Z,22.17
2017-01-30T04:14:14.952Z,22.21
2017-01-30T04:14:42.989Z,22.18
2017-01-30T04:15:11.726Z,22.18
2017-01-30T04:15:39.693Z,22.12
2017-01-30T04:16:07.646Z,22.05
2017-01-30T04:16:36.456Z,22.1
2017-01-30T04:17:04.492Z,22.1
2017-01-30T04:17:33.251Z,22.03
2017-01-30T04:18:01.158Z,22.1
2017-01-30T04:18:29.146Z,22.06
2017-01-30T04:18:57.047Z,22.1
2017-01-30T04:19:25.183Z,22.1
2017-01-30T04:19:53.273Z,22.1
2017-01-30T04:20:21.365Z,22.06
2017-01-30T04:20:49.247Z,22.03
2017-01-30T04:21:18.101Z,22.1
2017-01-30T04:21:46.915Z,22.09
2017-01-30T04:22:14.919Z,22.12
2017-01-30T04:22:43.297Z,22.07
2017-01-30T04:23:11.391Z,22.03
2017-01-30T04:23:39.496Z,22.05
2017-01-30T04:24:07.539Z,22.06
2017-01-30T04:24:35.529Z,22.05
2017-01-30T04:25:03.505Z,22.05
2017-01-30T04:25:31.635Z,21.96
2017-01-30T04:25:59.514Z,22.02
2017-01-30T04:26:27.484Z,22.05
2017-01-30T04:26:55.277Z,22.05
2017-01-30T04:27:23.338Z,22.05
2017-01-30T04:27:52.187Z,22.06
2017-01-30T04:28:21.034Z,22.05
2017-01-30T04:28:49.017Z,22.03
2017-01-30T04:29:17.053Z,22.05
2017-01-30T04:29:45.815Z,22.06
2017-01-30T04:30:13.714Z,22.06
2017-01-30T04:30:41.711Z,22.03
2017-01-30T04:31:48.040Z,22.07
2017-01-30T04:32:15.934Z,22.06
2017-01-30T04:32:44.163Z,22.09
2017-01-30T04:33:12.803Z,22.05
2017-01-30T04:33:40.810Z,22
2017-01-30T04:34:08.785Z,22.07
2017-01-30T04:34:36.668Z,22.05
2017-01-30T04:35:04.739Z,21.99
2017-01-30T04:35:32.818Z,22.06
2017-01-30T04:36:00.899Z,22
2017-01-30T04:36:29.798Z,21.98
2017-01-30T04:36:57.895Z,22.06
2017-01-30T04:37:25.882Z,21.98
2017-01-30T04:37:54.220Z,22.02
2017-01-30T04:38:22.286Z,22.03
2017-01-30T04:38:50.339Z,22.03
2017-01-30T04:39:19.209Z,21.96
2017-01-30T04:39:47.175Z,21.99
2017-01-30T04:40:14.990Z,21.98
2017-01-30T04:40:43.018Z,21.94
2017-01-30T04:41:11.791Z,21.99
2017-01-30T04:41:39.844Z,21.88
2017-01-30T04:42:07.652Z,21.91
2017-01-30T04:42:35.885Z,22.02
2017-01-30T04:43:03.928Z,21.98
2017-01-30T04:43:32.791Z,22.02
2017-01-30T04:44:01.481Z,21.98
2017-01-30T04:44:29.554Z,22.05
2017-01-30T04:44:58.419Z,21.94
2017-01-30T04:45:26.490Z,21.94
2017-01-30T04:45:54.469Z,21.94
2017-01-30T04:46:23.327Z,22.06
2017-01-30T04:46:51.202Z,21.94
2017-01-30T04:47:19.947Z,22.03
2017-01-30T04:47:48.000Z,22
2017-01-30T04:48:15.877Z,22
2017-01-30T04:48:44.633Z,21.96
2017-01-30T04:49:13.474Z,21.94
2017-01-30T04:49:41.330Z,22.02
2017-01-30T04:50:09.307Z,21.99
2017-01-30T04:50:37.375Z,21.96
2017-01-30T04:51:05.313Z,21.98
2017-01-30T04:51:33.191Z,21.98
2017-01-30T04:52:01.844Z,21.98
2017-01-30T04:52:29.836Z,22
2017-01-30T04:52:58.153Z,21.86
2017-01-30T04:53:26.013Z,21.94
2017-01-30T04:53:54.746Z,22
2017-01-30T04:54:23.506Z,21.96
2017-01-30T04:54:52.248Z,21.92
2017-01-30T04:55:21.074Z,21.99
2017-01-30T04:55:49.179Z,21.96
2017-01-30T04:56:17.125Z,21.91
2017-01-30T04:56:45.096Z,21.91
2017-01-30T04:57:12.994Z,21.99
2017-01-30T04:57:41.854Z,21.88
2017-01-30T04:58:09.932Z,21.94
2017-01-30T04:58:38.064Z,21.94
2017-01-30T04:59:06.073Z,21.92
2017-01-30T04:59:34.172Z,21.86
2017-01-30T05:00:03.021Z,21.91
2017-01-30T05:00:30.987Z,21.94
2017-01-30T05:00:59.079Z,21.91
2017-01-30T05:01:27.027Z,21.88
2017-01-30T05:01:55.034Z,21.98
2017-01-30T05:02:23.023Z,21.91
2017-01-30T05:02:50.952Z,21.96
2017-01-30T05:03:18.985Z,21.91
2017-01-30T05:03:46.864Z,21.82
2017-01-30T05:04:15.729Z,21.86
2017-01-30T05:04:43.541Z,21.91
2017-01-30T05:05:11.611Z,21.94
2017-01-30T05:05:40.334Z,21.91
2017-01-30T05:06:08.308Z,22.02
2017-01-30T05:06:36.176Z,21.91
2017-01-30T05:07:04.147Z,21.91
2017-01-30T05:07:32.127Z,21.91
2017-01-30T05:08:00.308Z,21.98
2017-01-30T05:08:29.216Z,21.92
2017-01-30T05:08:57.894Z,21.9
2017-01-30T05:09:25.793Z,21.99
2017-01-30T05:09:53.882Z,21.9
2017-01-30T05:11:00.122Z,21.98
2017-01-30T05:11:27.949Z,21.94
2017-01-30T05:11:56.017Z,21.94
2017-01-30T05:12:24.755Z,21.9
2017-01-30T05:12:53.838Z,21.96
2017-01-30T05:13:21.821Z,21.96
2017-01-30T05:13:50.668Z,21.91
2017-01-30T05:14:18.738Z,21.96
2017-01-30T05:14:46.737Z,21.98
2017-01-30T05:15:14.733Z,21.92
2017-01-30T05:15:42.874Z,21.82
2017-01-30T05:16:11.757Z,21.94
2017-01-30T05:16:40.610Z,21.88
2017-01-30T05:17:08.511Z,21.91
2017-01-30T05:17:36.488Z,21.91
2017-01-30T05:18:04.450Z,21.96
2017-01-30T05:18:32.443Z,21.8
2017-01-30T05:19:01.284Z,21.82
2017-01-30T05:19:29.364Z,21.79
2017-01-30T05:19:57.222Z,21.91
2017-01-30T05:20:25.220Z,21.8
2017-01-30T05:20:53.190Z,21.82
2017-01-30T05:21:20.909Z,21.9
2017-01-30T05:21:49.567Z,21.84
2017-01-30T05:22:18.397Z,21.79
2017-01-30T05:22:46.493Z,21.84
2017-01-30T05:23:14.654Z,21.94
2017-01-30T05:23:42.550Z,21.86
2017-01-30T05:24:10.369Z,21.86
2017-01-30T05:24:38.346Z,21.9
2017-01-30T05:25:06.318Z,21.91
2017-01-30T05:25:34.390Z,21.9
2017-01-30T05:26:02.441Z,21.88
2017-01-30T05:26:30.570Z,21.8
2017-01-30T05:26:58.437Z,21.9
2017-01-30T05:27:26.411Z,21.77
2017-01-30T05:27:54.377Z,21.8
2017-01-30T05:28:22.283Z,21.83
2017-01-30T05:28:50.237Z,21.83
2017-01-30T05:29:18.227Z,21.84
2017-01-30T05:29:46.208Z,21.79
2017-01-30T05:30:15.117Z,21.82
2017-01-30T05:30:43.093Z,21.83
2017-01-30T05:31:10.966Z,21.79
2017-01-30T05:31:38.956Z,21.74
2017-01-30T05:32:07.797Z,21.83
2017-01-30T05:32:35.748Z,21.83
2017-01-30T05:33:04.386Z,21.71
2017-01-30T05:33:33.118Z,21.8
2017-01-30T05:34:01.076Z,21.75
2017-01-30T05:34:29.814Z,21.74
2017-01-30T05:34:57.655Z,21.77
2017-01-30T05:35:25.777Z,21.79
2017-01-30T05:35:53.662Z,21.83
2017-01-30T05:36:21.643Z,21.83
2017-01-30T05:36:49.709Z,21.84
2017-01-30T05:37:17.688Z,21.83
2017-01-30T05:37:46.421Z,21.77
2017-01-30T05:38:16.091Z,21.86
2017-01-30T05:38:44.090Z,21.91
2017-01-30T05:39:12.055Z,21.74
2017-01-30T05:39:40.020Z,21.84
2017-01-30T05:40:08.797Z,21.8
2017-01-30T05:40:36.831Z,21.91
2017-01-30T05:41:04.838Z,21.84
2017-01-30T05:41:32.916Z,21.82
2017-01-30T05:42:00.936Z,21.88
2017-01-30T05:42:28.785Z,21.79
2017-01-30T05:42:56.843Z,21.84
2017-01-30T05:43:25.040Z,21.75
2017-01-30T05:43:53.031Z,21.86
2017-01-30T05:44:21.091Z,21.79
2017-01-30T05:44:49.040Z,21.9
2017-01-30T05:45:16.918Z,21.75
2017-01-30T05:45:44.877Z,21.94
2017-01-30T05:46:12.932Z,21.8
2017-01-30T05:46:40.999Z,21.82
2017-01-30T05:47:09.819Z,21.94
2017-01-30T05:47:38.641Z,21.94
2017-01-30T05:48:07.492Z,21.9
2017-01-30T05:48:35.576Z,21.82
2017-01-30T05:49:03.659Z,21.84
2017-01-30T05:50:09.896Z,21.92
2017-01-30T05:50:38.663Z,21.82
2017-01-30T05:51:06.641Z,21.92
2017-01-30T05:51:34.536Z,21.88
2017-01-30T05:52:02.455Z,21.83
2017-01-30T05:52:31.120Z,21.84
2017-01-30T05:52:59.100Z,21.83
2017-01-30T05:53:28.082Z,21.82
2017-01-30T05:53:56.072Z,21.79
2017-01-30T05:54:24.066Z,21.79
2017-01-30T05:54:52.192Z,21.8
2017-01-30T05:55:20.291Z,21.82
2017-01-30T05:55:48.282Z,21.84
2017-01-30T05:56:16.366Z,21.84
2017-01-30T05:56:44.436Z,21.84
2017-01-30T05:57:13.178Z,21.86
2017-01-30T05:57:41.195Z,21.8
2017-01-30T05:58:09.245Z,21.82
2017-01-30T05:58:37.230Z,21.77
2017-01-30T05:59:05.264Z,21.84
2017-01-30T05:59:33.175Z,21.84
2017-01-30T06:00:01.140Z,21.88
2017-01-30T06:00:29.736Z,21.86
2017-01-30T06:00:58.416Z,21.84
2017-01-30T06:01:27.335Z,21.77
2017-01-30T06:01:55.160Z,21.8
2017-01-30T06:02:23.953Z,21.86
2017-01-30T06:02:52.024Z,21.83
2017-01-30T06:03:20.804Z,21.86
2017-01-30T06:03:48.875Z,21.84
2017-01-30T06:04:16.773Z,21.83
2017-01-30T06:04:44.752Z,21.82
2017-01-30T06:05:12.808Z,21.75
2017-01-30T06:05:40.860Z,21.82
2017-01-30T06:06:08.819Z,21.77
2017-01-30T06:06:37.491Z,21.8
2017-01-30T06:07:05.470Z,21.8
2017-01-30T06:07:33.548Z,21.79
2017-01-30T06:08:01.506Z,21.86
2017-01-30T06:08:29.604Z,21.83
2017-01-30T06:08:57.512Z,21.83
2017-01-30T06:09:25.532Z,21.8
2017-01-30T06:09:53.505Z,21.69
2017-01-30T06:10:23.121Z,21.71
2017-01-30T06:10:52.676Z,21.72
2017-01-30T06:11:21.353Z,21.79